Time;durP1;ratioP1;P1;durP2;ratioP2;P2;SDS_P1;SDS_P2;PMS_P1;PMS_P2;Temp;Humidity;BMP_temperature;BMP_pressure;BME280_temperature;BME280_humidity;BME280_pressure;Samples;Min_cycle;Max_cycle;Signal;HPM_P1;HPM_P2
2022/11/15 00:00:37;;;;;;;;;;;6.10;99.90;;;;;;5015121;28;1914;-69
2022/11/15 00:03:05;;;;;;;;;;;6.00;99.90;;;;;;5014893;28;1616;-69
2022/11/15 00:05:35;;;;;;;;;;;6.00;99.90;;;;;;5016432;28;1097;-68
2022/11/15 00:08:02;;;;;;;;;;;6.00;99.90;;;;;;5029154;28;1064;-68
2022/11/15 00:10:30;;;;;;;;;;;5.90;99.90;;;;;;5014792;28;1081;-68
2022/11/15 00:12:57;;;;;;;;;;;6.00;99.90;;;;;;5016056;28;1297;-71
2022/11/15 00:15:26;;;;;;;;;;;5.90;99.90;;;;;;5024072;28;1097;-71
2022/11/15 00:17:54;;;;;;;;;;;5.90;99.90;;;;;;5023903;28;1643;-69
2022/11/15 00:20:22;;;;;;;;;;;6.10;99.90;;;;;;5019632;28;2022;-70
2022/11/15 00:22:49;;;;;;;;;;;6.00;99.90;;;;;;5023650;28;1299;-69
2022/11/15 00:25:17;;;;;;;;;;;5.90;99.90;;;;;;5024027;28;1124;-68
2022/11/15 00:27:45;;;;;;;;;;;5.90;99.90;;;;;;5025401;28;1109;-72
2022/11/15 00:30:13;;;;;;;;;;;5.80;99.90;;;;;;5025213;28;1267;-71
2022/11/15 00:32:42;;;;;;;;;;;5.90;99.90;;;;;;5015479;28;1308;-71
2022/11/15 00:35:09;;;;;;;;;;;5.80;99.90;;;;;;5015296;28;1061;-71
2022/11/15 00:37:37;;;;;;;;;;;6.00;99.90;;;;;;5017203;28;2495;-70
2022/11/15 00:40:06;;;;;;;;;;;6.10;99.90;;;;;;5021622;28;1930;-71
2022/11/15 00:42:34;;;;;;;;;;;6.20;99.90;;;;;;5018969;28;1376;-71
2022/11/15 00:45:01;;;;;;;;;;;6.30;99.90;;;;;;5018719;28;1042;-71
2022/11/15 00:47:29;;;;;;;;;;;6.30;99.90;;;;;;5022211;28;1449;-73
2022/11/15 00:49:58;;;;;;;;;;;6.20;99.90;;;;;;5018303;28;1104;-73
2022/11/15 00:52:26;;;;;;;;;;;6.20;99.90;;;;;;5021385;28;1379;-70
2022/11/15 00:54:53;;;;;;;;;;;6.10;99.90;;;;;;5024640;28;1371;-69
2022/11/15 00:57:21;;;;;;;;;;;6.10;99.90;;;;;;5021042;28;989;-70
2022/11/15 00:59:48;;;;;;;;;;;6.00;99.90;;;;;;5015468;28;1910;-71
2022/11/15 01:02:16;;;;;;;;;;;6.00;99.90;;;;;;5024705;28;1373;-69
2022/11/15 01:04:43;;;;;;;;;;;5.90;99.90;;;;;;5028418;28;1080;-69
2022/11/15 01:07:12;;;;;;;;;;;5.80;99.90;;;;;;5030361;28;1277;-70
2022/11/15 01:09:40;;;;;;;;;;;5.90;99.90;;;;;;5018909;28;1073;-69
2022/11/15 01:12:08;;;;;;;;;;;5.90;99.90;;;;;;5024548;28;1300;-70
2022/11/15 01:14:35;;;;;;;;;;;5.90;99.90;;;;;;5022394;28;1524;-69
2022/11/15 01:17:03;;;;;;;;;;;6.00;99.90;;;;;;5023068;28;1148;-69
2022/11/15 01:19:30;;;;;;;;;;;6.00;99.90;;;;;;5017918;28;1906;-68
2022/11/15 01:21:58;;;;;;;;;;;6.10;99.90;;;;;;5019698;28;1287;-68
2022/11/15 01:24:27;;;;;;;;;;;6.10;99.90;;;;;;5026093;28;1033;-68
2022/11/15 01:26:55;;;;;;;;;;;6.00;99.90;;;;;;5025770;28;1127;-68
2022/11/15 01:29:23;;;;;;;;;;;6.00;99.90;;;;;;5018544;28;1105;-70
2022/11/15 01:31:50;;;;;;;;;;;6.00;99.90;;;;;;5023638;28;1284;-71
2022/11/15 01:34:18;;;;;;;;;;;5.90;99.90;;;;;;5021615;28;1736;-70
2022/11/15 01:36:45;;;;;;;;;;;5.90;99.90;;;;;;5026412;28;2263;-66
2022/11/15 01:39:13;;;;;;;;;;;5.70;99.90;;;;;;5019811;28;990;-70
2022/11/15 01:41:42;;;;;;;;;;;5.70;99.90;;;;;;5019009;28;1967;-71
2022/11/15 01:44:28;;;;;;;;;;;5.70;99.90;;;;;;5018532;28;1132;-73
2022/11/15 01:46:56;;;;;;;;;;;5.70;99.90;;;;;;5024902;28;1083;-72
2022/11/15 01:49:24;;;;;;;;;;;5.70;99.90;;;;;;5025147;28;1051;-72
2022/11/15 01:51:52;;;;;;;;;;;5.70;99.90;;;;;;5024534;28;1294;-72
2022/11/15 01:54:20;;;;;;;;;;;5.70;99.90;;;;;;5025123;28;1971;-71
2022/11/15 01:56:52;;;;;;;;;;;5.60;99.90;;;;;;5021214;28;1996;-71
2022/11/15 01:59:20;;;;;;;;;;;5.60;99.90;;;;;;5024437;28;1964;-72
2022/11/15 02:01:48;;;;;;;;;;;5.60;99.90;;;;;;5025288;28;1922;-72
2022/11/15 02:04:17;;;;;;;;;;;5.60;99.90;;;;;;5024897;28;1677;-72
2022/11/15 02:06:46;;;;;;;;;;;5.50;99.90;;;;;;5027300;28;1282;-72
2022/11/15 02:09:14;;;;;;;;;;;5.50;99.90;;;;;;5029163;28;2026;-72
2022/11/15 02:11:42;;;;;;;;;;;5.50;99.90;;;;;;5022833;28;1301;-73
2022/11/15 02:20:43;;;;;;;;;;;5.40;99.90;;;;;;5061636;28;1923;-88
2022/11/15 02:23:25;;;;;;;;;;;5.40;99.90;;;;;;5041844;28;1658;-89
2022/11/15 02:25:58;;;;;;;;;;;5.30;99.90;;;;;;5044641;28;1512;-89
2022/11/15 02:28:35;;;;;;;;;;;5.30;99.90;;;;;;5060469;28;1504;-88
2022/11/15 02:31:08;;;;;;;;;;;5.30;99.90;;;;;;5060578;28;1004;-89
2022/11/15 02:33:39;;;;;;;;;;;5.30;99.90;;;;;;5059739;28;982;-91
2022/11/15 02:36:11;;;;;;;;;;;5.20;99.90;;;;;;5060021;28;1578;-91
2022/11/15 02:38:41;;;;;;;;;;;5.20;99.90;;;;;;5058913;28;1520;-91
2022/11/15 02:41:11;;;;;;;;;;;5.40;99.90;;;;;;5059929;28;1898;-90
2022/11/15 02:49:25;;;;;;;;;;;5.10;99.90;;;;;;5070814;28;1547;-90
2022/11/15 02:51:53;;;;;;;;;;;5.10;99.80;;;;;;5069407;28;1424;-91
2022/11/15 02:54:26;;;;;;;;;;;5.10;99.90;;;;;;5072752;28;1608;-92
2022/11/15 02:57:00;;;;;;;;;;;5.30;99.90;;;;;;5077031;28;1650;-90
2022/11/15 02:59:49;;;;;;;;;;;5.10;99.90;;;;;;5077832;28;1389;-90
2022/11/15 03:02:26;;;;;;;;;;;5.10;99.90;;;;;;5064580;28;1870;-90
2022/11/15 03:04:55;;;;;;;;;;;5.00;99.90;;;;;;5065033;28;1690;-90
2022/11/15 03:07:28;;;;;;;;;;;5.30;99.90;;;;;;5071677;28;1831;-91
2022/11/15 03:10:02;;;;;;;;;;;5.00;99.90;;;;;;5071703;28;1568;-91
2022/11/15 03:12:35;;;;;;;;;;;5.00;99.90;;;;;;5073353;28;1499;-90
2022/11/15 03:15:06;;;;;;;;;;;5.10;99.90;;;;;;5073684;28;1631;-91
2022/11/15 03:17:38;;;;;;;;;;;5.10;99.90;;;;;;5075882;28;1585;-91
2022/11/15 03:20:07;;;;;;;;;;;5.10;99.90;;;;;;5074020;28;1599;-91
2022/11/15 03:22:37;;;;;;;;;;;5.10;99.90;;;;;;5074015;28;1989;-91
2022/11/15 03:25:09;;;;;;;;;;;5.10;99.90;;;;;;5080230;28;1560;-92
2022/11/15 03:27:40;;;;;;;;;;;5.10;99.90;;;;;;5080012;28;1652;-92
2022/11/15 03:30:09;;;;;;;;;;;5.30;99.90;;;;;;5077681;28;1551;-92
2022/11/15 03:32:39;;;;;;;;;;;5.20;99.90;;;;;;5067177;28;1515;-90
2022/11/15 03:35:09;;;;;;;;;;;5.40;99.90;;;;;;5064844;28;1735;-91
2022/11/15 03:37:39;;;;;;;;;;;5.20;99.90;;;;;;5064128;28;1508;-91
2022/11/15 03:40:07;;;;;;;;;;;5.10;99.90;;;;;;5076860;28;1554;-92
2022/11/15 03:42:38;;;;;;;;;;;5.20;99.90;;;;;;5079699;28;1887;-92
2022/11/15 03:45:09;;;;;;;;;;;5.40;99.90;;;;;;5079659;28;1445;-92
2022/11/15 03:47:40;;;;;;;;;;;5.20;99.90;;;;;;5079865;28;1483;-91
2022/11/15 03:50:11;;;;;;;;;;;5.20;99.90;;;;;;5079672;28;1642;-93
2022/11/15 03:52:41;;;;;;;;;;;5.20;99.90;;;;;;5078489;28;1539;-92
2022/11/15 03:55:11;;;;;;;;;;;5.20;99.90;;;;;;5072598;28;1626;-90
2022/11/15 03:57:39;;;;;;;;;;;5.50;99.90;;;;;;5062373;28;1431;-92
2022/11/15 04:00:08;;;;;;;;;;;5.20;99.90;;;;;;5066320;28;1525;-94
2022/11/15 04:02:36;;;;;;;;;;;5.40;99.90;;;;;;5068770;28;1906;-91
2022/11/15 04:05:05;;;;;;;;;;;5.40;99.90;;;;;;5073976;28;1475;-92
2022/11/15 04:07:33;;;;;;;;;;;5.40;99.90;;;;;;5064241;28;1600;-90
2022/11/15 04:14:16;;;;;;;;;;;5.20;99.90;;;;;;4940043;29;1226;-89
2022/11/15 04:16:57;;;;;;;;;;;5.40;99.90;;;;;;4984160;28;1495;-88
2022/11/15 04:25:34;;;;;;;;;;;5.40;99.90;;;;;;4921121;29;1569;-88
2022/11/15 04:28:02;;;;;;;;;;;5.10;99.90;;;;;;4990741;28;1562;-91
2022/11/15 04:30:30;;;;;;;;;;;5.20;99.90;;;;;;4986249;28;1694;-90
2022/11/15 04:32:59;;;;;;;;;;;5.50;99.90;;;;;;5041201;28;1544;-91
2022/11/15 04:35:27;;;;;;;;;;;5.30;99.90;;;;;;5057841;28;1629;-93
2022/11/15 04:37:57;;;;;;;;;;;5.40;99.90;;;;;;5061451;28;1430;-91
2022/11/15 04:40:25;;;;;;;;;;;5.30;99.90;;;;;;5060576;28;1408;-91
2022/11/15 04:42:57;;;;;;;;;;;5.30;99.90;;;;;;5058086;28;1882;-91
2022/11/15 04:45:38;;;;;;;;;;;5.40;99.90;;;;;;5054992;28;1430;-92
2022/11/15 04:48:10;;;;;;;;;;;5.30;99.90;;;;;;5059208;28;1515;-91
2022/11/15 04:50:40;;;;;;;;;;;5.70;99.90;;;;;;5056979;28;1689;-92
2022/11/15 04:53:09;;;;;;;;;;;5.30;99.90;;;;;;5057105;28;1514;-91
2022/11/15 04:55:37;;;;;;;;;;;5.30;99.90;;;;;;5055358;28;1668;-91
2022/11/15 04:58:07;;;;;;;;;;;5.60;99.90;;;;;;5059834;28;1397;-91
2022/11/15 05:00:39;;;;;;;;;;;5.50;99.90;;;;;;5059381;28;1402;-90
2022/11/15 05:06:07;;;;;;;;;;;5.90;99.90;;;;;;5054778;28;1058;-92
2022/11/15 05:08:44;;;;;;;;;;;5.70;99.90;;;;;;5057053;28;1575;-92
2022/11/15 05:11:20;;;;;;;;;;;5.70;99.90;;;;;;5051122;28;1500;-90
2022/11/15 05:13:48;;;;;;;;;;;5.80;99.90;;;;;;5049729;28;1551;-91
2022/11/15 05:16:16;;;;;;;;;;;5.90;99.90;;;;;;5056195;28;1675;-92
2022/11/15 05:18:44;;;;;;;;;;;6.10;99.90;;;;;;5057636;28;1457;-91
2022/11/15 05:21:13;;;;;;;;;;;6.00;99.90;;;;;;5058283;28;1525;-91
2022/11/15 05:23:42;;;;;;;;;;;6.00;99.90;;;;;;5054492;28;1993;-91
2022/11/15 05:26:11;;;;;;;;;;;6.10;99.90;;;;;;5050686;28;1536;-90
2022/11/15 05:28:39;;;;;;;;;;;6.10;99.90;;;;;;5049402;28;1674;-90
2022/11/15 05:31:11;;;;;;;;;;;6.10;99.90;;;;;;5054472;28;1686;-91
2022/11/15 05:33:40;;;;;;;;;;;6.00;99.90;;;;;;5061944;28;1597;-91
2022/11/15 05:36:10;;;;;;;;;;;6.00;99.90;;;;;;5056365;28;1553;-92
2022/11/15 05:38:38;;;;;;;;;;;6.20;99.90;;;;;;5050689;28;1566;-91
2022/11/15 05:41:09;;;;;;;;;;;6.20;99.90;;;;;;5053886;28;1665;-91
2022/11/15 05:43:39;;;;;;;;;;;6.30;99.90;;;;;;5055317;28;1887;-91
2022/11/15 05:46:07;;;;;;;;;;;6.20;99.90;;;;;;5051754;28;1547;-91
2022/11/15 05:48:36;;;;;;;;;;;6.30;99.90;;;;;;5050754;28;1474;-93
2022/11/15 05:51:07;;;;;;;;;;;6.40;99.90;;;;;;5057746;28;1520;-91
2022/11/15 05:53:48;;;;;;;;;;;5.90;99.90;;;;;;5066663;28;1702;-91
2022/11/15 05:56:28;;;;;;;;;;;6.40;99.90;;;;;;5072850;28;1650;-91
2022/11/15 05:58:56;;;;;;;;;;;6.60;99.90;;;;;;5069339;28;1535;-90
2022/11/15 06:01:27;;;;;;;;;;;6.40;99.90;;;;;;5064833;28;1579;-92
2022/11/15 06:04:02;;;;;;;;;;;6.40;99.90;;;;;;5061628;28;1969;-89
2022/11/15 06:06:30;;;;;;;;;;;6.50;99.90;;;;;;5064787;28;1536;-89
2022/11/15 06:09:03;;;;;;;;;;;6.50;99.90;;;;;;5075799;28;1637;-90
2022/11/15 06:11:33;;;;;;;;;;;6.50;99.90;;;;;;5077323;28;1731;-89
2022/11/15 06:14:06;;;;;;;;;;;6.60;99.90;;;;;;5078211;28;1642;-90
2022/11/15 06:16:34;;;;;;;;;;;6.90;99.90;;;;;;5079005;28;1714;-91
2022/11/15 06:19:02;;;;;;;;;;;6.60;99.90;;;;;;5078640;28;1447;-89
2022/11/15 06:21:30;;;;;;;;;;;6.70;99.90;;;;;;5062711;28;1680;-89
2022/11/15 06:23:58;;;;;;;;;;;6.70;99.90;;;;;;5064858;28;1966;-89
2022/11/15 06:26:26;;;;;;;;;;;6.80;99.90;;;;;;5065915;28;1608;-90
2022/11/15 06:28:56;;;;;;;;;;;6.80;99.90;;;;;;5051317;28;1697;-89
2022/11/15 06:31:24;;;;;;;;;;;6.70;99.90;;;;;;5047313;28;1605;-89
2022/11/15 06:33:52;;;;;;;;;;;7.10;99.90;;;;;;5048380;28;1736;-88
2022/11/15 06:36:20;;;;;;;;;;;6.90;99.90;;;;;;5064909;28;1594;-88
2022/11/15 06:38:48;;;;;;;;;;;7.00;99.90;;;;;;5080373;28;1661;-90
2022/11/15 06:41:16;;;;;;;;;;;7.20;99.90;;;;;;5067144;28;1416;-87
2022/11/15 06:43:44;;;;;;;;;;;7.20;99.90;;;;;;5055498;28;1910;-90
2022/11/15 06:46:13;;;;;;;;;;;7.30;99.90;;;;;;5058871;28;995;-88
2022/11/15 06:48:42;;;;;;;;;;;7.50;99.90;;;;;;5054168;28;1950;-87
2022/11/15 06:51:10;;;;;;;;;;;7.40;99.90;;;;;;5060376;28;1539;-90
2022/11/15 06:53:39;;;;;;;;;;;7.40;99.90;;;;;;5057636;28;1677;-89
2022/11/15 06:56:07;;;;;;;;;;;7.40;99.90;;;;;;5052917;28;1584;-89
2022/11/15 06:58:35;;;;;;;;;;;7.40;99.90;;;;;;5045398;28;1552;-88
2022/11/15 07:01:04;;;;;;;;;;;7.40;99.90;;;;;;5049386;28;1430;-89
2022/11/15 07:03:34;;;;;;;;;;;7.50;99.90;;;;;;5057542;28;1918;-87
2022/11/15 07:06:05;;;;;;;;;;;7.50;99.90;;;;;;5056690;28;1700;-87
2022/11/15 07:08:34;;;;;;;;;;;7.40;99.90;;;;;;5057484;28;1488;-87
2022/11/15 07:11:03;;;;;;;;;;;7.50;99.90;;;;;;5064805;28;1314;-89
2022/11/15 07:13:34;;;;;;;;;;;7.80;99.90;;;;;;5064737;28;2028;-88
2022/11/15 07:16:03;;;;;;;;;;;7.60;99.90;;;;;;5054094;28;1727;-89
2022/11/15 07:18:31;;;;;;;;;;;7.70;99.90;;;;;;5046008;28;1280;-87
2022/11/15 07:21:03;;;;;;;;;;;7.60;99.50;;;;;;5061971;28;1239;-86
2022/11/15 07:23:31;;;;;;;;;;;7.70;99.90;;;;;;5053352;28;1961;-91
2022/11/15 07:25:59;;;;;;;;;;;7.60;99.60;;;;;;5053887;28;1726;-88
2022/11/15 07:28:27;;;;;;;;;;;7.80;99.90;;;;;;5042200;28;1536;-88
2022/11/15 07:30:55;;;;;;;;;;;7.80;99.90;;;;;;5043362;28;1458;-89
2022/11/15 07:33:23;;;;;;;;;;;7.70;99.20;;;;;;5055282;28;1632;-87
2022/11/15 07:35:51;;;;;;;;;;;7.80;99.60;;;;;;5041659;28;1033;-89
2022/11/15 07:38:20;;;;;;;;;;;7.80;99.90;;;;;;5040647;28;1302;-88
2022/11/15 07:40:48;;;;;;;;;;;8.00;99.80;;;;;;5042447;28;1456;-87
2022/11/15 07:43:16;;;;;;;;;;;8.00;99.60;;;;;;5057747;28;1883;-89
2022/11/15 07:45:47;;;;;;;;;;;8.00;99.60;;;;;;5051333;28;1025;-88
2022/11/15 07:48:14;;;;;;;;;;;8.10;99.80;;;;;;5043658;28;1542;-90
2022/11/15 07:50:43;;;;;;;;;;;8.00;99.00;;;;;;5041791;28;981;-92
2022/11/15 07:53:11;;;;;;;;;;;8.20;99.10;;;;;;5054754;28;1422;-89
2022/11/15 07:55:43;;;;;;;;;;;8.00;98.90;;;;;;5062149;28;1583;-90
2022/11/15 07:58:13;;;;;;;;;;;8.10;99.20;;;;;;5048785;28;1718;-90
2022/11/15 08:00:41;;;;;;;;;;;8.10;98.90;;;;;;5061574;28;1697;-91
2022/11/15 08:03:10;;;;;;;;;;;8.00;98.10;;;;;;5062119;28;1891;-88
2022/11/15 08:05:38;;;;;;;;;;;8.10;98.60;;;;;;5062297;28;1311;-91
2022/11/15 08:08:07;;;;;;;;;;;8.10;98.40;;;;;;5049089;28;1346;-89
2022/11/15 08:10:35;;;;;;;;;;;8.10;98.50;;;;;;5042603;28;1024;-89
2022/11/15 08:13:10;;;;;;;;;;;8.10;98.20;;;;;;5050964;28;1563;-90
2022/11/15 08:15:40;;;;;;;;;;;8.30;98.10;;;;;;5047541;28;1368;-89
2022/11/15 08:18:14;;;;;;;;;;;8.30;98.20;;;;;;5048154;28;1678;-88
2022/11/15 08:20:43;;;;;;;;;;;8.20;98.20;;;;;;5043550;28;1801;-88
2022/11/15 08:23:12;;;;;;;;;;;8.10;98.20;;;;;;5052847;28;1902;-89
2022/11/15 08:25:40;;;;;;;;;;;8.20;98.30;;;;;;5057192;28;1598;-88
2022/11/15 08:28:10;;;;;;;;;;;8.10;98.50;;;;;;5045521;28;1646;-88
2022/11/15 08:30:41;;;;;;;;;;;8.30;98.10;;;;;;5048576;28;1488;-90
2022/11/15 08:33:18;;;;;;;;;;;8.10;98.30;;;;;;5037663;28;1650;-90
2022/11/15 08:35:46;;;;;;;;;;;8.10;98.10;;;;;;5039943;28;1562;-90
2022/11/15 08:38:15;;;;;;;;;;;8.20;98.10;;;;;;5042938;28;1666;-88
2022/11/15 08:40:53;;;;;;;;;;;8.20;97.60;;;;;;5045082;28;1691;-89
2022/11/15 08:43:22;;;;;;;;;;;8.30;98.10;;;;;;5039145;28;1887;-88
2022/11/15 08:45:50;;;;;;;;;;;8.30;98.10;;;;;;5051470;28;1576;-88
2022/11/15 08:48:18;;;;;;;;;;;8.30;97.50;;;;;;5077915;28;1503;-89
2022/11/15 08:50:46;;;;;;;;;;;8.60;97.80;;;;;;5064025;28;1561;-89
2022/11/15 08:53:14;;;;;;;;;;;8.50;97.60;;;;;;5060179;28;1523;-88
2022/11/15 08:55:47;;;;;;;;;;;8.60;97.50;;;;;;5052585;28;1698;-90
2022/11/15 08:58:17;;;;;;;;;;;8.80;97.60;;;;;;5046331;28;1456;-89
2022/11/15 09:00:46;;;;;;;;;;;8.50;97.30;;;;;;5060449;28;1005;-88
2022/11/15 09:03:17;;;;;;;;;;;8.60;97.50;;;;;;5052675;28;1060;-91
2022/11/15 09:05:45;;;;;;;;;;;8.60;97.90;;;;;;5048575;28;1942;-89
2022/11/15 09:08:13;;;;;;;;;;;8.60;97.50;;;;;;5061878;28;1209;-89
2022/11/15 09:11:03;;;;;;;;;;;8.60;97.20;;;;;;5061443;28;1702;-89
2022/11/15 09:13:36;;;;;;;;;;;8.90;97.70;;;;;;5061339;28;1523;-89
2022/11/15 09:16:08;;;;;;;;;;;8.80;97.60;;;;;;5061006;28;1088;-89
2022/11/15 09:18:36;;;;;;;;;;;8.80;97.50;;;;;;5060423;28;1519;-88
2022/11/15 09:21:11;;;;;;;;;;;8.90;97.30;;;;;;5062565;28;1530;-89
2022/11/15 09:23:40;;;;;;;;;;;8.80;97.30;;;;;;5064951;28;1977;-90
2022/11/15 09:26:08;;;;;;;;;;;9.00;97.40;;;;;;5065225;28;1500;-89
2022/11/15 09:28:37;;;;;;;;;;;9.00;96.80;;;;;;5066238;28;1574;-89
2022/11/15 09:31:08;;;;;;;;;;;9.10;97.10;;;;;;5065031;28;1554;-91
2022/11/15 09:33:38;;;;;;;;;;;9.00;97.00;;;;;;5047769;28;1388;-89
2022/11/15 09:36:06;;;;;;;;;;;9.20;96.80;;;;;;5064789;28;1500;-89
2022/11/15 09:38:35;;;;;;;;;;;9.20;96.70;;;;;;5066510;28;1599;-89
2022/11/15 09:41:23;;;;;;;;;;;9.30;97.20;;;;;;5066628;28;1706;-89
2022/11/15 09:43:55;;;;;;;;;;;9.20;96.80;;;;;;5067321;28;1883;-90
2022/11/15 09:46:29;;;;;;;;;;;9.30;96.70;;;;;;5066647;28;1601;-88
2022/11/15 09:48:59;;;;;;;;;;;9.40;96.40;;;;;;5054411;28;1702;-90
2022/11/15 09:51:46;;;;;;;;;;;9.40;96.10;;;;;;5057674;28;1723;-89
2022/11/15 09:54:27;;;;;;;;;;;9.50;96.30;;;;;;5079456;28;1543;-90
2022/11/15 09:57:18;;;;;;;;;;;9.50;96.40;;;;;;5047795;28;1260;-89
2022/11/15 10:00:09;;;;;;;;;;;9.50;96.00;;;;;;5054736;28;1381;-89
2022/11/15 10:03:05;;;;;;;;;;;9.60;96.20;;;;;;5049532;28;1312;-90
2022/11/15 10:05:41;;;;;;;;;;;9.40;96.00;;;;;;5046003;28;1977;-89
2022/11/15 10:08:14;;;;;;;;;;;10.00;95.60;;;;;;5045524;28;1401;-90
2022/11/15 10:14:04;;;;;;;;;;;10.10;95.20;;;;;;5058399;28;1380;-91
2022/11/15 10:16:57;;;;;;;;;;;9.90;95.40;;;;;;5059634;28;1429;-90
2022/11/15 10:19:29;;;;;;;;;;;10.00;95.50;;;;;;5054507;28;1535;-92
2022/11/15 10:22:01;;;;;;;;;;;9.90;95.70;;;;;;5052895;28;1425;-91
2022/11/15 10:24:36;;;;;;;;;;;10.20;95.60;;;;;;5053189;28;1871;-91
2022/11/15 10:27:09;;;;;;;;;;;10.00;95.20;;;;;;5051292;28;1527;-88
2022/11/15 10:29:37;;;;;;;;;;;10.40;95.50;;;;;;5048422;28;1383;-91
2022/11/15 10:32:06;;;;;;;;;;;10.10;94.70;;;;;;5040909;28;1367;-89
2022/11/15 10:34:36;;;;;;;;;;;10.30;95.30;;;;;;5046491;28;1962;-90
2022/11/15 10:37:05;;;;;;;;;;;10.20;95.30;;;;;;5050172;28;1500;-90
2022/11/15 10:39:34;;;;;;;;;;;10.50;95.30;;;;;;5046924;28;1281;-89
2022/11/15 10:42:16;;;;;;;;;;;10.60;95.30;;;;;;5041018;28;1622;-89
2022/11/15 10:44:45;;;;;;;;;;;10.40;95.50;;;;;;5042424;28;1910;-90
2022/11/15 10:47:26;;;;;;;;;;;10.40;95.30;;;;;;5047606;28;1584;-88
2022/11/15 10:49:59;;;;;;;;;;;10.50;95.50;;;;;;5040650;28;1540;-89
2022/11/15 10:52:31;;;;;;;;;;;10.50;95.60;;;;;;5053690;28;1614;-88
2022/11/15 10:55:02;;;;;;;;;;;10.50;95.40;;;;;;5058590;28;1661;-87
2022/11/15 10:57:31;;;;;;;;;;;10.50;95.50;;;;;;5061294;28;1563;-89
2022/11/15 11:00:01;;;;;;;;;;;10.60;95.30;;;;;;5053708;28;1691;-88
2022/11/15 11:02:41;;;;;;;;;;;10.60;95.40;;;;;;5057250;28;1061;-88
2022/11/15 11:19:04;;;;;;;;;;;11.30;95.30;;;;;;5052559;22;1877;-74
2022/11/15 11:21:36;;;;;;;;;;;11.10;94.80;;;;;;5061337;28;1311;-74
2022/11/15 11:24:11;;;;;;;;;;;11.20;94.90;;;;;;5044817;28;1014;-74
2022/11/15 11:26:42;;;;;;;;;;;11.20;94.90;;;;;;5043629;28;1985;-75
2022/11/15 11:29:21;;;;;;;;;;;11.30;95.00;;;;;;5043237;28;1291;-74
2022/11/15 11:31:54;;;;;;;;;;;11.30;94.90;;;;;;5044950;28;1268;-72
2022/11/15 11:34:31;;;;;;;;;;;11.30;94.90;;;;;;5044737;28;1045;-73
2022/11/15 11:37:00;;;;;;;;;;;11.30;94.70;;;;;;5039161;28;1148;-74
2022/11/15 11:39:32;;;;;;;;;;;11.30;94.80;;;;;;5038767;28;1115;-72
2022/11/15 11:42:04;;;;;;;;;;;11.40;94.80;;;;;;5036578;28;1288;-68
2022/11/15 11:44:35;;;;;;;;;;;11.40;94.50;;;;;;5041733;28;1477;-70
2022/11/15 11:47:07;;;;;;;;;;;11.40;94.30;;;;;;5043384;28;1910;-71
2022/11/15 11:49:40;;;;;;;;;;;11.40;94.10;;;;;;5047333;28;1080;-70
2022/11/15 11:52:11;;;;;;;;;;;11.50;94.40;;;;;;5049561;28;1982;-70
2022/11/15 11:54:42;;;;;;;;;;;11.40;94.10;;;;;;5050372;28;1634;-70
2022/11/15 11:57:13;;;;;;;;;;;11.60;94.40;;;;;;5044719;28;1661;-70
2022/11/15 11:59:44;;;;;;;;;;;11.50;94.10;;;;;;5044252;28;1889;-70
2022/11/15 12:02:15;;;;;;;;;;;11.40;94.00;;;;;;5042492;28;1713;-70
2022/11/15 12:04:46;;;;;;;;;;;11.60;94.60;;;;;;5042422;28;1602;-70
2022/11/15 12:07:16;;;;;;;;;;;11.60;94.20;;;;;;5041355;28;1977;-70
2022/11/15 12:09:45;;;;;;;;;;;11.60;94.20;;;;;;5041812;28;1689;-71
2022/11/15 12:12:18;;;;;;;;;;;11.60;94.30;;;;;;5043062;28;1744;-69
2022/11/15 12:14:48;;;;;;;;;;;11.70;94.10;;;;;;5045438;28;965;-70
2022/11/15 12:17:17;;;;;;;;;;;11.70;93.90;;;;;;5037343;28;1598;-70
2022/11/15 12:19:46;;;;;;;;;;;11.80;93.90;;;;;;5040970;28;1685;-71
2022/11/15 12:22:18;;;;;;;;;;;11.80;94.00;;;;;;5036041;28;1245;-70
2022/11/15 12:24:49;;;;;;;;;;;11.90;94.00;;;;;;5052081;28;1571;-70
2022/11/15 12:27:18;;;;;;;;;;;11.90;93.90;;;;;;5046994;28;1993;-70
2022/11/15 12:29:54;;;;;;;;;;;12.00;93.90;;;;;;5056374;28;1037;-71
2022/11/15 12:32:26;;;;;;;;;;;11.90;93.60;;;;;;5057190;28;1296;-70
2022/11/15 12:34:55;;;;;;;;;;;12.00;93.80;;;;;;5048165;28;1239;-70
2022/11/15 12:37:55;;;;;;;;;;;12.10;93.70;;;;;;5055319;28;1053;-70
2022/11/15 12:40:24;;;;;;;;;;;12.20;93.70;;;;;;5049579;28;1061;-71
2022/11/15 12:42:59;;;;;;;;;;;12.10;93.70;;;;;;5058459;28;1356;-70
2022/11/15 12:45:28;;;;;;;;;;;12.00;93.90;;;;;;5056872;28;1895;-71
2022/11/15 12:48:12;;;;;;;;;;;12.00;93.80;;;;;;5057797;28;1092;-70
2022/11/15 12:50:58;;;;;;;;;;;12.00;93.90;;;;;;5060536;28;2247;-70
2022/11/15 12:53:27;;;;;;;;;;;11.90;94.00;;;;;;5048760;28;1057;-71
2022/11/15 12:56:14;;;;;;;;;;;11.90;93.90;;;;;;5057479;28;1767;-71
2022/11/15 12:58:43;;;;;;;;;;;11.90;94.00;;;;;;5055634;28;1219;-76
2022/11/15 13:01:11;;;;;;;;;;;11.80;93.90;;;;;;5054463;28;1695;-74
2022/11/15 13:03:53;;;;;;;;;;;11.90;94.00;;;;;;5061926;28;1677;-76
2022/11/15 13:06:41;;;;;;;;;;;11.80;93.80;;;;;;5059817;28;1895;-72
2022/11/15 13:09:27;;;;;;;;;;;11.80;94.10;;;;;;5060897;28;1077;-74
2022/11/15 13:11:55;;;;;;;;;;;11.80;94.00;;;;;;5057040;28;1299;-75
2022/11/15 13:14:39;;;;;;;;;;;11.90;94.10;;;;;;5050839;28;1092;-74
2022/11/15 13:17:25;;;;;;;;;;;11.90;94.30;;;;;;5063965;28;1085;-73
2022/11/15 13:19:56;;;;;;;;;;;11.90;94.20;;;;;;5060510;28;1668;-73
2022/11/15 13:25:43;;;;;;;;;;;11.90;94.20;;;;;;5038097;28;1132;-74
2022/11/15 13:28:12;;;;;;;;;;;11.90;94.10;;;;;;5020521;28;1451;-74
2022/11/15 13:30:41;;;;;;;;;;;11.80;94.00;;;;;;5041514;28;1465;-74
2022/11/15 13:33:09;;;;;;;;;;;11.90;94.10;;;;;;5041750;28;1356;-74
2022/11/15 13:35:39;;;;;;;;;;;11.90;94.20;;;;;;5045833;28;1049;-73
2022/11/15 13:38:19;;;;;;;;;;;11.90;94.40;;;;;;5046965;28;1523;-75
2022/11/15 13:40:46;;;;;;;;;;;11.90;94.00;;;;;;5043716;28;1643;-74
2022/11/15 13:43:27;;;;;;;;;;;11.80;94.40;;;;;;5040094;28;1274;-75
2022/11/15 13:46:04;;;;;;;;;;;11.90;94.20;;;;;;5038081;28;1988;-75
2022/11/15 13:48:33;;;;;;;;;;;11.90;94.20;;;;;;5044102;28;1480;-75
2022/11/15 13:51:02;;;;;;;;;;;11.90;94.40;;;;;;5045904;28;1013;-73
2022/11/15 13:53:32;;;;;;;;;;;11.80;94.20;;;;;;5041038;28;1044;-73
2022/11/15 13:56:00;;;;;;;;;;;11.90;94.20;;;;;;5043549;28;1607;-73
2022/11/15 13:58:27;;;;;;;;;;;11.90;94.10;;;;;;5049693;28;1220;-74
2022/11/15 14:00:59;;;;;;;;;;;12.00;94.10;;;;;;5041639;28;1675;-73
2022/11/15 14:03:28;;;;;;;;;;;12.00;94.30;;;;;;5040611;28;1096;-73
2022/11/15 14:06:07;;;;;;;;;;;12.00;94.40;;;;;;5052942;28;1962;-73
2022/11/15 14:08:36;;;;;;;;;;;12.00;94.20;;;;;;5042226;28;1145;-73
2022/11/15 14:11:14;;;;;;;;;;;12.00;94.30;;;;;;5047486;28;1363;-70
2022/11/15 14:13:42;;;;;;;;;;;12.00;94.30;;;;;;5049966;28;1272;-71
2022/11/15 14:16:13;;;;;;;;;;;11.90;94.40;;;;;;5049886;28;1373;-71
2022/11/15 14:18:45;;;;;;;;;;;12.00;94.30;;;;;;5042774;28;1938;-72
2022/11/15 14:21:13;;;;;;;;;;;12.00;94.30;;;;;;5044666;28;1491;-71
2022/11/15 14:23:42;;;;;;;;;;;12.00;94.40;;;;;;5046775;28;1186;-70
2022/11/15 14:26:26;;;;;;;;;;;12.00;94.50;;;;;;5047048;28;1898;-70
2022/11/15 14:28:53;;;;;;;;;;;12.00;94.60;;;;;;5046152;28;1459;-70
2022/11/15 14:31:21;;;;;;;;;;;11.90;94.50;;;;;;5043834;28;1306;-70
2022/11/15 14:33:49;;;;;;;;;;;11.80;94.60;;;;;;5036235;28;1566;-70
2022/11/15 14:36:18;;;;;;;;;;;11.70;94.80;;;;;;5045397;28;1520;-70
2022/11/15 14:38:47;;;;;;;;;;;11.70;94.90;;;;;;5046242;28;1658;-74
2022/11/15 14:41:18;;;;;;;;;;;11.80;95.10;;;;;;5044625;28;1862;-73
2022/11/15 14:43:46;;;;;;;;;;;11.70;95.10;;;;;;5042881;28;1685;-68
2022/11/15 14:46:14;;;;;;;;;;;11.70;95.30;;;;;;5045025;28;1776;-67
2022/11/15 14:48:41;;;;;;;;;;;11.70;95.10;;;;;;5041018;28;1848;-68
2022/11/15 14:51:14;;;;;;;;;;;11.60;95.30;;;;;;5042551;28;1646;-67
2022/11/15 14:53:42;;;;;;;;;;;11.60;95.60;;;;;;5047869;28;1192;-68
2022/11/15 14:56:12;;;;;;;;;;;11.60;95.30;;;;;;5047927;28;1582;-67
2022/11/15 14:58:43;;;;;;;;;;;11.60;95.30;;;;;;5048646;28;1022;-67
2022/11/15 15:01:13;;;;;;;;;;;11.50;95.60;;;;;;5048173;28;1470;-67
2022/11/15 15:03:40;;;;;;;;;;;11.40;95.80;;;;;;5046160;28;1670;-66
2022/11/15 15:06:09;;;;;;;;;;;11.50;95.90;;;;;;5050728;28;835;-67
2022/11/15 15:08:44;;;;;;;;;;;11.30;96.00;;;;;;5048326;28;1918;-68
2022/11/15 15:11:15;;;;;;;;;;;11.30;96.40;;;;;;5040890;28;1760;-67
2022/11/15 15:13:43;;;;;;;;;;;11.20;96.20;;;;;;5042865;28;1108;-67
2022/11/15 15:16:10;;;;;;;;;;;11.30;96.10;;;;;;5042194;28;1124;-68
2022/11/15 15:18:38;;;;;;;;;;;11.30;96.10;;;;;;5042244;28;1532;-68
2022/11/15 15:21:16;;;;;;;;;;;11.20;96.20;;;;;;5039577;28;1276;-70
2022/11/15 15:23:43;;;;;;;;;;;11.10;96.20;;;;;;5038366;28;1088;-69
2022/11/15 15:26:11;;;;;;;;;;;11.10;96.40;;;;;;5037493;28;1076;-68
2022/11/15 15:28:40;;;;;;;;;;;11.10;96.40;;;;;;5043355;28;1997;-68
2022/11/15 15:31:09;;;;;;;;;;;11.00;96.50;;;;;;5037423;28;1495;-68
2022/11/15 15:33:36;;;;;;;;;;;11.00;96.70;;;;;;5044378;28;1508;-69
2022/11/15 15:36:04;;;;;;;;;;;10.90;96.70;;;;;;5041382;28;1650;-68
2022/11/15 15:38:32;;;;;;;;;;;11.00;96.80;;;;;;5043183;28;1014;-68
2022/11/15 15:41:02;;;;;;;;;;;10.90;96.70;;;;;;5043640;28;1068;-69
2022/11/15 15:43:30;;;;;;;;;;;10.80;96.90;;;;;;5043616;28;1157;-69
2022/11/15 15:45:59;;;;;;;;;;;10.90;97.20;;;;;;5048458;28;1364;-70